Strona główna
METAR-TAF:

METAR-TAF

Lotnisko :

João Pessoa, Paraíba, Brazylia

Szerokość geograficzna: 07-06S, Długość geograficzna: 034-52W, wysokość: 7 m

Aktualna obserwacja pogody

Raport powstał 44 minut temu, godzina 11:00 UTC
Wiatr 8 kt od wschodnio-południowy wschód, zmienny między wschód i południowo-południowy wschód
Temperatura 30°C
Wilgotność 66%
Ciśnienie 1015 hPa
Widzialność 10 km lub więcej
Rozproszone chmury na wysokości 2500 ft

METAR: SBJP 281100Z 12008KT 090V150 9999 SCT025 30/23 Q1015

czas: 08:44 (11:44 UTC)

Prognoza

Raport powstał 1 godzina i 44 minut temu, godzina 10:00 UTC
Prognoza ważna od 28 godzina 12 UTC do 29 godzina 12 UTC
Wiatr 8 kt od południowy wschód
Widzialność 10 km lub więcej
Przerywane chmury na wysokości 2000 ft
Stopniowe zmiany
od 28 godzina 14 UTC do 28 godzina 16 UTC
Wiatr 13 kt od wschodnio-południowy wschód
Rozproszone chmury na wysokości 3000 ft

TAF: SBJP 281000Z 2812/2912 14008KT 9999 BKN020 TX31/2814Z TN24/2906Z BECMG 2814/2816 11013KT SCT030 RMK PEH

Obserwacja i prognoza pogody dla ponad 4000 lotnisk (raport METAR i TAF).

Dostępne stacje oznaczono żółtymi i czerwonymi punktami na mapie.

Najedź kursorem aby zobaczyć nazwę stacji.

Kliknij aby zobaczyć obserwacje i prognozy pogody.

Aby zmienić mapę: kliknij na zielony przycisk z czarnym krzyżykiem, aby powiększyć; na zielony przycisk z myślnikiem, aby pomniejszyć; na zielone strzałki, aby przejść do map sąsiednich.


METAR-TAF: